Impacts TAF Board
For situational awareness. Not to be used for flight planning purposes.
IDs:

KDEN - Denver Intl, CO, US

Issued at 0520 UTC 27 Feb 2020
Updated at 0826 UTC 27 Feb 2020
Potential Impact None Slight Moderate High
Time0753Z 27/09Z 27/10Z 27/11Z 27/12Z 27/13Z 27/14Z 27/15Z 27/16Z 27/17Z 27/18Z 27/19Z 27/20Z 27/21Z>>
Type OBS PRVL PRVL PRVL PRVL PRVL PRVL PRVL PRVL PRVL PRVL PRVL PRVL PRVL
VIS 10 >6 >6 >6 >6 >6 >6 >6 >6 >6 >6 >6 >6 >6
CIG 120 -- -- -- -- -- -- -- -- -- -- -- -- --
Cover BKN FEW FEW FEW FEW FEW FEW FEW FEW FEW FEW FEW FEW FEW
FltCat VFR VFR VFR VFR VFR VFR VFR VFR VFR VFR VFR VFR VFR VFR
WX -- -- -- -- -- -- -- -- -- -- -- -- -- --
WDir 290 220 220 220 220 220 290 290 290 290 350 350 350 350
WSpd 7 9 9 9 9 9 6 6 6 6 18 18 18 18
WGst -- -- -- -- -- -- -- -- -- -- 32 32 32 32
Raw TAF
KDEN 270520Z 2706/2812 22009KT P6SM FEW140
  FM271400 29006KT P6SM FEW120
  FM271800 35018G32KT P6SM FEW120
  FM280100 21010KT P6SM FEW150


Raw METAR
KDEN 270753Z 29007KT 10SM BKN120 02/M08 A3012 RMK AO2 SLP196 T00171083
KDEN 270653Z 23005KT 10SM FEW100 BKN140 01/M09 A3011 RMK AO2 SLP201 T00111089 400501122
KDEN 270553Z 24008KT 10SM FEW140 01/M09 A3013 RMK AO2 SLP209 T00111089 10033 21006 58006

METAR Board
Radar Display
Forecast Discussion
For situational awareness. Not to be used for flight planning purposes.